createdAt,value
2018-12-30T00:02:21.817Z,98.30
2018-12-30T00:07:23.662Z,98.30
2018-12-30T00:12:25.033Z,98.30
2018-12-30T00:17:26.302Z,98.30
2018-12-30T00:22:28.068Z,98.30
2018-12-30T00:27:29.318Z,98.40
2018-12-30T00:32:30.565Z,98.30
2018-12-30T00:37:31.839Z,98.40
2018-12-30T00:42:33.253Z,98.30
2018-12-30T00:47:34.523Z,98.50
2018-12-30T00:52:35.785Z,98.40
2018-12-30T00:57:37.026Z,98.30
2018-12-30T01:02:38.263Z,98.30
2018-12-30T01:07:39.636Z,98.10
2018-12-30T01:12:40.880Z,98.10
2018-12-30T01:17:42.127Z,98.10
2018-12-30T01:22:43.778Z,97.80
2018-12-30T01:27:45.020Z,96.50
2018-12-30T01:32:46.361Z,95.10
2018-12-30T01:37:47.678Z,94.60
2018-12-30T01:42:48.908Z,92.60
2018-12-30T01:47:50.147Z,90.80
2018-12-30T01:52:51.405Z,89.90
2018-12-30T01:57:52.961Z,89.40
2018-12-30T02:02:54.202Z,87.80
2018-12-30T02:07:55.556Z,87.50
2018-12-30T02:12:56.834Z,86.60
2018-12-30T02:17:58.075Z,85.30
2018-12-30T02:22:59.312Z,84.60
2018-12-30T02:28:00.539Z,85.00
2018-12-30T02:33:01.807Z,84.30
2018-12-30T02:38:03.036Z,84.40
2018-12-30T02:43:04.574Z,84.80
2018-12-30T02:48:05.814Z,84.60
2018-12-30T02:53:07.066Z,85.00
2018-12-30T02:58:08.314Z,84.40
2018-12-30T03:03:09.582Z,85.40
2018-12-30T03:08:10.817Z,84.50
2018-12-30T03:13:12.065Z,84.60
2018-12-30T03:18:13.295Z,85.20
2018-12-30T03:23:14.520Z,85.60
2018-12-30T03:28:15.770Z,85.20
2018-12-30T03:33:17.000Z,84.10
2018-12-30T03:38:18.257Z,84.30
2018-12-30T03:43:19.487Z,84.60
2018-12-30T03:48:20.730Z,84.40
2018-12-30T03:53:21.951Z,83.60
2018-12-30T03:58:23.203Z,83.70
2018-12-30T04:03:24.442Z,82.50
2018-12-30T04:08:25.684Z,81.90
2018-12-30T04:13:26.919Z,82.00
2018-12-30T04:18:28.155Z,82.00
2018-12-30T04:23:29.393Z,79.10
2018-12-30T04:28:30.716Z,79.70
2018-12-30T04:33:32.078Z,80.30
2018-12-30T04:38:33.392Z,80.80
2018-12-30T04:43:34.736Z,81.00
2018-12-30T04:48:35.975Z,81.00
2018-12-30T04:53:37.219Z,81.00
2018-12-30T04:58:38.456Z,80.40
2018-12-30T05:03:39.713Z,80.30
2018-12-30T05:08:40.956Z,78.70
2018-12-30T05:13:42.202Z,79.10
2018-12-30T05:18:43.430Z,79.80
2018-12-30T05:23:44.661Z,81.00
2018-12-30T05:28:45.898Z,80.80
2018-12-30T05:33:47.132Z,80.60
2018-12-30T05:38:48.379Z,80.90
2018-12-30T05:43:49.616Z,80.80
2018-12-30T05:48:50.868Z,80.60
2018-12-30T05:53:52.145Z,81.00
2018-12-30T05:58:53.390Z,81.30
2018-12-30T06:03:54.611Z,81.40
2018-12-30T06:08:55.840Z,80.40
2018-12-30T06:13:57.115Z,81.00
2018-12-30T06:18:58.338Z,81.00
2018-12-30T06:23:59.604Z,81.40
2018-12-30T06:29:00.846Z,80.90
2018-12-30T06:34:02.083Z,79.90
2018-12-30T06:39:04.753Z,80.60
2018-12-30T06:44:06.013Z,80.50
2018-12-30T06:49:07.246Z,81.20
2018-12-30T06:54:08.497Z,82.40
2018-12-30T06:59:09.727Z,83.60
2018-12-30T07:04:10.978Z,82.20
2018-12-30T07:09:12.225Z,82.30
2018-12-30T07:14:13.478Z,80.40
2018-12-30T07:19:14.783Z,79.50
2018-12-30T07:24:16.027Z,80.40
2018-12-30T07:29:17.253Z,81.10
2018-12-30T07:34:18.525Z,82.70
2018-12-30T07:39:19.766Z,82.70
2018-12-30T07:44:21.015Z,81.30
2018-12-30T07:49:22.258Z,81.50
2018-12-30T07:54:23.502Z,82.20
2018-12-30T07:59:24.727Z,82.70
2018-12-30T08:04:25.985Z,84.10
2018-12-30T08:09:27.217Z,85.00
2018-12-30T08:14:28.651Z,84.00
2018-12-30T08:19:29.883Z,83.50
2018-12-30T08:24:31.141Z,83.40
2018-12-30T08:29:32.383Z,83.10
2018-12-30T08:34:33.626Z,84.00
2018-12-30T08:39:34.886Z,85.50
2018-12-30T08:44:36.133Z,84.20
2018-12-30T08:49:37.376Z,85.10
2018-12-30T08:54:38.626Z,84.80
2018-12-30T08:59:39.961Z,83.60
2018-12-30T09:04:41.210Z,84.70
2018-12-30T09:09:42.451Z,84.90
2018-12-30T09:14:43.700Z,81.70
2018-12-30T09:19:44.962Z,81.40
2018-12-30T09:24:46.196Z,81.80
2018-12-30T09:29:47.438Z,80.90
2018-12-30T09:34:48.673Z,82.30
2018-12-30T09:39:49.909Z,83.20
2018-12-30T09:44:51.185Z,82.90
2018-12-30T09:49:52.422Z,81.20
2018-12-30T09:54:53.690Z,82.00
2018-12-30T09:59:54.949Z,81.10
2018-12-30T10:04:56.185Z,81.70
2018-12-30T10:09:57.449Z,81.00
2018-12-30T10:15:01.972Z,78.60
2018-12-30T10:20:03.569Z,81.10
2018-12-30T10:25:04.807Z,81.70
2018-12-30T10:30:08.055Z,82.40
2018-12-30T10:35:09.289Z,81.60
2018-12-30T10:40:10.581Z,81.90
2018-12-30T10:45:11.838Z,82.70
2018-12-30T10:50:13.151Z,82.50
2018-12-30T10:55:14.415Z,83.30
2018-12-30T11:00:16.066Z,84.20
2018-12-30T11:05:17.332Z,84.50
2018-12-30T11:10:18.580Z,81.70
2018-12-30T11:15:19.820Z,81.80
2018-12-30T11:20:21.105Z,81.10
2018-12-30T11:25:22.356Z,80.70
2018-12-30T11:30:23.607Z,81.20
2018-12-30T11:35:24.996Z,83.60
2018-12-30T11:40:26.265Z,82.70
2018-12-30T11:45:27.504Z,82.60
2018-12-30T11:50:28.771Z,83.10
2018-12-30T11:55:30.028Z,81.50
2018-12-30T12:00:31.406Z,82.10
2018-12-30T12:05:32.636Z,83.70
2018-12-30T12:10:33.909Z,84.00
2018-12-30T12:15:35.162Z,84.10
2018-12-30T12:20:36.425Z,85.00
2018-12-30T12:25:37.654Z,83.90
2018-12-30T12:30:38.908Z,83.90
2018-12-30T12:35:40.263Z,84.60
2018-12-30T12:40:41.528Z,83.50
2018-12-30T12:45:42.890Z,83.70
2018-12-30T12:50:44.153Z,84.10
2018-12-30T12:55:45.470Z,83.60
2018-12-30T13:00:46.784Z,84.10
2018-12-30T13:05:48.026Z,84.50
2018-12-30T13:10:49.264Z,83.90
2018-12-30T13:15:50.528Z,84.20
2018-12-30T13:20:51.821Z,83.80
2018-12-30T13:25:53.116Z,84.00
2018-12-30T13:30:54.312Z,84.20
2018-12-30T13:35:55.621Z,84.10
2018-12-30T13:40:56.931Z,83.50
2018-12-30T13:45:58.179Z,81.40
2018-12-30T13:50:59.421Z,81.20
2018-12-30T13:56:00.924Z,81.10
2018-12-30T14:01:02.197Z,81.00
2018-12-30T14:06:03.460Z,81.40
2018-12-30T14:11:04.843Z,82.30
2018-12-30T14:16:06.092Z,82.30
2018-12-30T14:21:07.455Z,82.80
2018-12-30T14:26:09.639Z,83.30
2018-12-30T14:31:12.841Z,83.80
2018-12-30T14:36:14.083Z,84.10
2018-12-30T14:41:15.346Z,84.60
2018-12-30T14:46:16.721Z,84.70
2018-12-30T14:51:17.973Z,84.80
2018-12-30T14:56:19.257Z,85.40
2018-12-30T15:01:20.539Z,85.30
2018-12-30T15:06:21.775Z,86.10
2018-12-30T15:11:23.133Z,86.30
2018-12-30T15:16:24.402Z,86.30
2018-12-30T15:21:25.644Z,86.80
2018-12-30T15:26:26.913Z,86.60
2018-12-30T15:31:28.167Z,87.20
2018-12-30T15:36:29.428Z,87.80
2018-12-30T15:41:30.706Z,87.60
2018-12-30T15:46:31.945Z,88.40
2018-12-30T15:51:33.242Z,90.40
2018-12-30T15:56:34.493Z,90.70
2018-12-30T16:01:35.757Z,91.10
2018-12-30T16:06:36.994Z,91.60
2018-12-30T16:11:38.265Z,91.50
2018-12-30T16:16:39.544Z,92.60
2018-12-30T16:21:40.801Z,93.30
2018-12-30T16:26:42.065Z,94.40
2018-12-30T16:31:43.339Z,94.90
2018-12-30T16:36:44.596Z,95.20
2018-12-30T16:41:45.864Z,95.40
2018-12-30T16:46:47.130Z,95.50
2018-12-30T16:51:48.417Z,96.80
2018-12-30T16:56:49.680Z,96.00
2018-12-30T17:01:50.973Z,95.40
2018-12-30T17:06:52.219Z,95.20
2018-12-30T17:11:53.488Z,94.90
2018-12-30T17:16:54.735Z,94.80
2018-12-30T17:21:55.988Z,94.70
2018-12-30T17:26:58.463Z,94.70
2018-12-30T17:31:59.798Z,94.90
2018-12-30T17:37:01.059Z,95.30
2018-12-30T17:42:02.343Z,95.30
2018-12-30T17:47:03.607Z,95.00
2018-12-30T17:52:04.855Z,94.70
2018-12-30T17:57:06.121Z,93.20
2018-12-30T18:02:07.401Z,95.00
2018-12-30T18:07:08.679Z,94.80
2018-12-30T18:12:09.933Z,95.70
2018-12-30T18:17:11.188Z,95.30
2018-12-30T18:22:12.447Z,95.20
2018-12-30T18:27:13.703Z,95.40
2018-12-30T18:32:15.005Z,95.40
2018-12-30T18:37:16.250Z,95.60
2018-12-30T18:42:17.520Z,95.30
2018-12-30T18:47:18.785Z,95.80
2018-12-30T18:52:20.022Z,96.20
2018-12-30T18:57:21.289Z,96.40
2018-12-30T19:02:22.553Z,96.20
2018-12-30T19:07:23.809Z,96.30
2018-12-30T19:12:25.149Z,96.40
2018-12-30T19:17:26.416Z,96.50
2018-12-30T19:22:27.705Z,96.50
2018-12-30T19:27:28.962Z,96.50
2018-12-30T19:32:30.237Z,96.60
2018-12-30T19:37:31.513Z,96.90
2018-12-30T19:42:32.920Z,97.30
2018-12-30T19:47:34.114Z,97.80
2018-12-30T19:52:35.400Z,99.10
2018-12-30T19:57:37.000Z,98.40
2018-12-30T20:02:38.363Z,98.50
2018-12-30T20:07:39.614Z,98.20
2018-12-30T20:12:40.928Z,98.30
2018-12-30T20:17:42.188Z,98.20
2018-12-30T20:22:43.453Z,98.20
2018-12-30T20:27:44.716Z,98.00
2018-12-30T20:32:45.982Z,98.20
2018-12-30T20:37:47.239Z,98.40
2018-12-30T20:42:48.498Z,98.20
2018-12-30T20:47:49.756Z,98.30
2018-12-30T20:52:51.031Z,98.20
2018-12-30T20:57:52.265Z,98.20
2018-12-30T21:02:53.529Z,98.30
2018-12-30T21:07:54.787Z,98.40
2018-12-30T21:12:56.090Z,98.50
2018-12-30T21:17:57.374Z,98.40
2018-12-30T21:22:58.624Z,98.50
2018-12-30T21:27:59.897Z,98.60
2018-12-30T21:33:01.179Z,98.60
2018-12-30T21:38:02.555Z,98.50
2018-12-30T21:43:03.825Z,98.70
2018-12-30T21:48:05.096Z,99.50
2018-12-30T21:53:06.377Z,99.90
2018-12-30T21:58:07.636Z,99.90
2018-12-30T22:03:08.987Z,99.90
2018-12-30T22:08:10.251Z,99.90
2018-12-30T22:13:11.543Z,99.90
2018-12-30T22:18:12.846Z,99.90
2018-12-30T22:23:14.119Z,99.90
2018-12-30T22:28:15.367Z,99.90
2018-12-30T22:33:16.641Z,99.90
2018-12-30T22:38:17.953Z,99.90
2018-12-30T22:43:19.235Z,99.90
2018-12-30T22:48:20.474Z,99.90
2018-12-30T22:53:21.836Z,99.90
2018-12-30T22:58:23.112Z,99.90
2018-12-30T23:03:24.344Z,99.90
2018-12-30T23:08:25.587Z,99.90
2018-12-30T23:13:26.891Z,99.90
2018-12-30T23:18:28.140Z,99.90
2018-12-30T23:23:29.413Z,99.90
2018-12-30T23:28:30.684Z,99.90
2018-12-30T23:33:31.940Z,99.90
2018-12-30T23:38:33.190Z,99.90
2018-12-30T23:43:34.435Z,99.90
2018-12-30T23:48:35.701Z,99.90
2018-12-30T23:53:36.953Z,99.90
2018-12-30T23:58:38.210Z,99.90
